createdAt,value
2023-03-06T00:00:49.712Z,11.34
2023-03-06T00:05:55.516Z,10.98
2023-03-06T00:11:00.785Z,10.98
2023-03-06T00:16:04.833Z,11.37
2023-03-06T00:21:08.950Z,11.10
2023-03-06T00:26:13.881Z,11.09
2023-03-06T00:31:18.853Z,11.18
2023-03-06T00:36:22.310Z,11.33
2023-03-06T00:41:27.208Z,11.57
2023-03-06T00:46:30.677Z,11.58
2023-03-06T00:51:34.244Z,11.35
2023-03-06T00:56:39.441Z,11.67
2023-03-06T01:01:42.934Z,11.20
2023-03-06T01:06:46.363Z,11.26
2023-03-06T01:11:51.246Z,11.66
2023-03-06T01:16:54.644Z,11.02
2023-03-06T01:21:58.116Z,11.02
2023-03-06T01:27:03.004Z,11.27
2023-03-06T01:32:06.925Z,11.23
2023-03-06T01:37:10.427Z,11.03
2023-03-06T01:42:15.186Z,11.34
2023-03-06T01:47:20.263Z,11.23
2023-03-06T01:52:27.573Z,10.62
2023-03-06T01:57:35.244Z,10.95
2023-03-06T02:02:39.144Z,10.92
2023-03-06T02:07:43.807Z,11.17
2023-03-06T02:12:52.475Z,10.74
2023-03-06T02:17:56.691Z,10.45
2023-03-06T02:23:04.575Z,10.81
2023-03-06T02:28:12.038Z,11.49
2023-03-06T02:33:17.766Z,11.61
2023-03-06T02:38:23.847Z,11.30
2023-03-06T02:43:32.491Z,11.31
2023-03-06T02:48:36.271Z,11.77
2023-03-06T02:53:39.708Z,11.47
2023-03-06T02:58:44.575Z,11.51
2023-03-06T03:03:48.074Z,11.60
2023-03-06T03:08:51.993Z,11.53
2023-03-06T03:13:57.186Z,11.30
2023-03-06T03:19:03.465Z,10.95
2023-03-06T03:24:09.872Z,11.20
2023-03-06T03:29:14.813Z,10.81
2023-03-06T03:34:18.911Z,10.95
2023-03-06T03:39:22.496Z,10.64
2023-03-06T03:44:27.357Z,11.18
2023-03-06T03:49:31.996Z,11.10
2023-03-06T03:54:36.865Z,11.12
2023-03-06T03:59:41.789Z,11.30
2023-03-06T04:04:52.110Z,10.34
2023-03-06T04:09:56.144Z,10.70
2023-03-06T04:15:02.065Z,10.84
2023-03-06T04:20:06.923Z,11.25
2023-03-06T04:25:11.276Z,11.09
2023-03-06T04:30:16.584Z,11.19
2023-03-06T04:35:20.238Z,11.16
2023-03-06T04:40:35.104Z,11.59
2023-03-06T04:45:40.098Z,11.25
2023-03-06T04:50:43.580Z,11.24
2023-03-06T04:55:46.972Z,11.41
2023-03-06T05:00:52.044Z,11.33
2023-03-06T05:05:55.517Z,11.68
2023-03-06T05:11:00.982Z,11.63
2023-03-06T05:16:06.845Z,11.27
2023-03-06T05:21:10.464Z,11.58
2023-03-06T05:26:15.341Z,11.44
2023-03-06T05:31:20.270Z,11.62
2023-03-06T05:36:23.742Z,11.64
2023-03-06T05:41:27.161Z,11.45
2023-03-06T05:46:31.978Z,11.66
2023-03-06T05:51:35.389Z,11.27
2023-03-06T05:56:39.617Z,11.01
2023-03-06T06:01:45.586Z,10.68
2023-03-06T06:06:52.505Z,11.42
2023-03-06T06:11:57.414Z,11.43
2023-03-06T06:17:02.339Z,11.52
2023-03-06T06:22:06.230Z,10.88
2023-03-06T06:27:09.701Z,11.07
2023-03-06T06:32:14.578Z,11.64
2023-03-06T06:37:18.015Z,11.60
2023-03-06T06:42:31.460Z,11.46
2023-03-06T06:47:41.272Z,11.54
2023-03-06T06:52:44.880Z,11.55
2023-03-06T06:57:48.313Z,11.07
2023-03-06T07:02:53.156Z,11.43
2023-03-06T07:07:56.686Z,12.07
2023-03-06T07:13:00.107Z,11.43
2023-03-06T07:18:04.930Z,11.35
2023-03-06T07:23:08.849Z,12.08
2023-03-06T07:28:12.474Z,11.37
2023-03-06T07:33:17.842Z,11.86
2023-03-06T07:38:21.277Z,11.80
2023-03-06T07:43:24.741Z,11.50
2023-03-06T07:48:38.759Z,11.09
2023-03-06T07:53:42.393Z,11.30
2023-03-06T07:58:47.248Z,11.59
2023-03-06T08:03:52.239Z,11.81
2023-03-06T08:08:56.418Z,11.36
2023-03-06T08:14:00.555Z,12.08
2023-03-06T08:19:05.480Z,11.77
2023-03-06T08:24:09.125Z,11.55
2023-03-06T08:29:12.599Z,11.24
2023-03-06T08:34:19.795Z,11.79
2023-03-06T08:39:23.671Z,11.64
2023-03-06T08:44:27.184Z,11.69
2023-03-06T08:49:32.044Z,11.96
2023-03-06T08:54:36.266Z,11.57
2023-03-06T08:59:39.687Z,10.53
2023-03-06T09:04:44.663Z,10.92
2023-03-06T09:09:48.193Z,11.06
2023-03-06T09:14:51.583Z,10.08
2023-03-06T09:19:56.354Z,10.58
2023-03-06T09:25:00.839Z,9.74
2023-03-06T09:30:08.484Z,9.65
2023-03-06T09:35:14.476Z,9.84
2023-03-06T09:40:23.133Z,9.75
2023-03-06T09:45:26.561Z,9.39
2023-03-06T09:50:36.441Z,9.75
2023-03-06T09:55:41.335Z,10.10
2023-03-06T10:00:52.265Z,10.24
2023-03-06T10:06:02.583Z,9.81
2023-03-06T10:11:10.710Z,10.09
2023-03-06T10:16:23.843Z,10.23
2023-03-06T10:21:35.657Z,10.09
2023-03-06T10:26:42.273Z,10.94
2023-03-06T10:31:49.753Z,11.03
2023-03-06T10:36:54.628Z,10.74
2023-03-06T10:41:58.196Z,11.42
2023-03-06T10:47:25.220Z,11.40
2023-03-06T10:52:32.748Z,11.85
2023-03-06T10:57:36.205Z,12.12
2023-03-06T11:02:41.138Z,12.21
2023-03-06T11:07:56.258Z,11.92
2023-03-06T11:13:01.427Z,11.94
2023-03-06T11:18:06.446Z,11.21
2023-03-06T11:23:17.016Z,11.32
2023-03-06T11:28:23.188Z,11.81
2023-03-06T11:33:29.931Z,11.95
2023-03-06T11:38:41.539Z,11.71
2023-03-06T11:43:51.309Z,11.62
2023-03-06T11:48:55.709Z,12.30
2023-03-06T11:54:01.802Z,12.43
2023-03-06T11:59:27.756Z,12.76
2023-03-06T12:04:47.703Z,12.66
2023-03-06T12:09:57.180Z,13.26
2023-03-06T12:15:11.786Z,12.84
2023-03-06T12:20:24.752Z,12.59
2023-03-06T12:25:34.880Z,13.20
2023-03-06T12:31:12.911Z,14.27
2023-03-06T12:36:30.929Z,14.79
2023-03-06T12:41:47.545Z,15.31
2023-03-06T12:46:54.688Z,14.49
2023-03-06T12:51:59.555Z,13.63
2023-03-06T12:57:06.699Z,13.37
2023-03-06T13:02:39.644Z,12.72
2023-03-06T13:07:55.569Z,12.93
2023-03-06T13:13:01.650Z,13.14
2023-03-06T13:18:43.874Z,13.42
2023-03-06T13:23:52.654Z,13.78
2023-03-06T13:28:58.248Z,14.43
2023-03-06T13:34:02.936Z,14.34
2023-03-06T13:39:10.040Z,13.81
2023-03-06T13:44:50.771Z,14.27
2023-03-06T13:49:55.609Z,14.37
2023-03-06T13:55:03.157Z,14.25
2023-03-06T14:00:57.243Z,14.25
2023-03-06T14:06:02.208Z,14.19
2023-03-06T14:11:08.691Z,14.45
2023-03-06T14:16:14.221Z,13.92
2023-03-06T14:21:27.035Z,15.01
2023-03-06T14:26:33.304Z,14.70
2023-03-06T14:31:38.836Z,13.71
2023-03-06T14:36:46.889Z,14.08
2023-03-06T14:41:50.446Z,13.75
2023-03-06T14:46:55.413Z,13.92
2023-03-06T14:52:01.363Z,14.12
2023-03-06T14:57:14.862Z,14.37
2023-03-06T15:02:20.269Z,14.06
2023-03-06T15:07:28.242Z,13.93
2023-03-06T15:12:36.925Z,13.88
2023-03-06T15:17:41.858Z,14.03
2023-03-06T15:22:51.431Z,13.82
2023-03-06T15:27:56.463Z,13.94
2023-03-06T15:33:11.287Z,14.12
2023-03-06T15:38:27.696Z,13.83
2023-03-06T15:43:35.082Z,13.61
2023-03-06T15:48:38.652Z,13.31
2023-03-06T15:53:47.923Z,13.68
2023-03-06T15:58:51.777Z,13.97
2023-03-06T16:03:55.360Z,13.83
2023-03-06T16:09:00.226Z,13.55
2023-03-06T16:14:03.689Z,13.82
2023-03-06T16:19:13.996Z,13.55
2023-03-06T16:24:26.111Z,13.19
2023-03-06T16:29:30.275Z,13.60
2023-03-06T16:34:33.749Z,13.74
2023-03-06T16:39:38.556Z,13.63
2023-03-06T16:44:41.977Z,13.66
2023-03-06T16:49:45.458Z,13.59
2023-03-06T16:54:50.414Z,13.33
2023-03-06T16:59:53.884Z,12.64
2023-03-06T17:04:57.266Z,12.31
2023-03-06T17:10:02.148Z,12.84
2023-03-06T17:15:07.588Z,13.00
2023-03-06T17:20:12.495Z,12.93
2023-03-06T17:25:17.346Z,12.77
2023-03-06T17:30:20.743Z,12.74
2023-03-06T17:35:24.186Z,12.47
2023-03-06T17:40:29.020Z,12.10
2023-03-06T17:45:36.764Z,12.08
2023-03-06T17:50:40.273Z,11.98
2023-03-06T17:55:45.066Z,12.02
2023-03-06T18:00:48.559Z,12.03
2023-03-06T18:05:59.907Z,11.92
2023-03-06T18:11:06.299Z,11.80
2023-03-06T18:16:10.751Z,11.57
2023-03-06T18:21:16.380Z,11.71
2023-03-06T18:26:22.789Z,11.39
2023-03-06T18:31:28.001Z,11.63
2023-03-06T18:36:32.946Z,11.40
2023-03-06T18:41:38.618Z,11.35
2023-03-06T18:46:46.882Z,11.50
2023-03-06T18:51:50.784Z,11.35
2023-03-06T18:56:55.569Z,11.35
2023-03-06T19:01:59.238Z,11.25
2023-03-06T19:07:02.698Z,11.23
2023-03-06T19:12:08.674Z,10.93
2023-03-06T19:17:12.384Z,10.92
2023-03-06T19:22:15.932Z,11.05
2023-03-06T19:27:21.365Z,11.14
2023-03-06T19:32:25.059Z,11.10
2023-03-06T19:37:28.484Z,10.98
2023-03-06T19:42:33.430Z,10.92
2023-03-06T19:47:36.957Z,10.76
2023-03-06T19:52:40.394Z,10.64
2023-03-06T19:57:45.765Z,10.70
2023-03-06T20:02:49.484Z,10.71
2023-03-06T20:07:53.104Z,10.74
2023-03-06T20:12:58.044Z,10.69
2023-03-06T20:18:01.441Z,10.25
2023-03-06T20:23:04.942Z,10.34
2023-03-06T20:28:09.763Z,10.45
2023-03-06T20:33:15.150Z,10.45
2023-03-06T20:38:18.845Z,10.74
2023-03-06T20:43:23.668Z,10.80
2023-03-06T20:48:27.116Z,10.74
2023-03-06T20:53:30.742Z,10.72
2023-03-06T20:58:35.716Z,10.72
2023-03-06T21:03:39.304Z,10.70
2023-03-06T21:08:42.724Z,10.25
2023-03-06T21:13:47.560Z,10.16
2023-03-06T21:18:51.488Z,9.94
2023-03-06T21:23:55.168Z,10.31
2023-03-06T21:29:00.600Z,9.59
2023-03-06T21:34:05.467Z,10.08
2023-03-06T21:39:09.181Z,10.40
2023-03-06T21:44:13.933Z,9.78
2023-03-06T21:49:18.118Z,10.19
2023-03-06T21:54:21.629Z,10.44
2023-03-06T21:59:26.548Z,10.65
2023-03-06T22:04:30.026Z,10.60
2023-03-06T22:09:35.671Z,10.78
2023-03-06T22:14:41.377Z,10.73
2023-03-06T22:19:44.810Z,10.25
2023-03-06T22:24:48.682Z,10.26
2023-03-06T22:29:53.666Z,10.66
2023-03-06T22:34:57.078Z,10.74
2023-03-06T22:40:00.520Z,11.29
2023-03-06T22:45:06.248Z,11.07
2023-03-06T22:50:11.169Z,10.73
2023-03-06T22:55:14.760Z,10.84
2023-03-06T23:00:20.645Z,10.96
2023-03-06T23:05:24.539Z,10.39
2023-03-06T23:10:27.929Z,10.20
2023-03-06T23:15:51.831Z,10.35
2023-03-06T23:21:16.201Z,10.36
2023-03-06T23:26:38.209Z,10.07
2023-03-06T23:31:43.125Z,9.78
2023-03-06T23:36:46.569Z,10.37
2023-03-06T23:41:49.973Z,10.62
2023-03-06T23:46:55.048Z,9.85
2023-03-06T23:51:58.550Z,9.19
2023-03-06T23:57:02.068Z,10.34
